Station PAXA2 - Point Arden, AK Image indicating link to RSS feed of recent meteorological observations for station PAXA2


Conditions at PAXA2 as of
(5:53 pm AKDT on 05/29/2024)
0153 GMT on 05/30/2024:
     

Click on the graph icon in the table below to see a time series plot of the last five days of that observation.

5-day plot - Wind Direction Wind Direction (WDIR):SSW ( 200 deg true )
5-day plot - Wind Speed Wind Speed (WSPD): 3 kts
5-day plot - Wind Gust Wind Gust (GST): 11 kts
5-day plot - Air Temperature Air Temperature (ATMP): 49.8 °F
5-day plot - Dew Point Dew Point (DEWP): 42.4 °F
5-day plot - Wind Chill Wind Chill (CHILL): 49.1 °F
5-day plot - Wind Speed at 10 Meters Wind Speed at 10 meters (WSPD10M): 4 kts
5-day plot - Wind Speed at 20 Meters Wind Speed at 20 meters (WSPD20M): 4 kts
5-day plot -  Wind Speed, Wind Gust and Atmospheric Pressure Combined plot of Wind Speed, Gust, and Air Pressure
Previous observations
TIME
(AKDT)
5-day plot - Wind Direction
WDIR
 
5-day plot - Wind Speed
WSPD
kts
5-day plot - Wind Gust
GST
kts
5-day plot - Wave Height
WVHT
ft
5-day plot - Dominant Wave Period
DPD
sec
5-day plot - Average Wave Period
APD
sec
5-day plot - Mean Wave Direction
MWD
 
5-day plot - Atmospheric Pressure
PRES
in
5-day plot - Pressure Tendency
PTDY
in
5-day plot - Air Temperature
ATMP
°F
5-day plot - Water Temperature
WTMP
°F
5-day plot - Dew Point
DEWP
°F
5-day plot - Salinity
SAL
psu
5-day plot - Visibility
VIS
nmi
5-day plot - Tide (above MLLW)
TIDE
ft
2024-05-29 05:44 pmSSE 3 11------ 49.8- 42.3---
2024-05-29 05:33 pmSSE 2 8------ 50.0- 42.6---
2024-05-29 05:23 pm SE 3 6------ 50.5- 42.6---
2024-05-29 05:14 pm NE 3 9------ 50.9- 42.6---
2024-05-29 05:03 pm SE 4 9------ 50.7- 41.9---
2024-05-29 04:53 pm SE 4 13------ 50.5- 42.3---
2024-05-29 04:43 pm SE 3 9------ 50.7- 42.6---
2024-05-29 04:33 pmSSE 3 9------ 50.5- 41.9---
2024-05-29 04:23 pm S 3 7------ 50.5- 42.3---
2024-05-29 04:14 pmSSE 3 9------ 50.9- 42.8---
2024-05-29 03:54 pmSSE 3 8------ 50.9- 43.5---
2024-05-29 03:44 pm SE 3 8------ 51.1- 43.7---
2024-05-29 03:34 pm SE 3 6------ 50.9- 43.7---
2024-05-29 03:24 pmSSE 3 7------ 50.5- 43.7---
2024-05-29 03:14 pm SE 2 5------ 49.8- 43.5---
2024-05-29 03:05 pmSSE 3 6------ 49.5- 43.5---
2024-05-29 02:56 pm S 2 4------ 49.1- 43.5---
2024-05-29 02:44 pm S 2 7------ 49.3- 43.5---
2024-05-29 02:37 pm NW 3 7------ 49.5- 43.3---
2024-05-29 02:25 pmNNW 3 5------ 49.3- 43.3---
2024-05-29 02:15 pmWNW 2 9------ 49.8- 43.9---
2024-05-29 02:03 pmSSW 2 7------ 50.4- 44.2---
2024-05-29 01:53 pmSSE 2 8------ 51.6- 43.0---
2024-05-29 01:43 pm SE 4 11------ 52.7- 41.9---
2024-05-29 01:33 pm SE 4 10------ 52.9- 42.1---
2024-05-29 01:23 pmESE 5 12------ 52.3- 42.4---
2024-05-29 01:13 pm SE 5 10------ 52.0- 42.8---
2024-05-29 01:03 pm SE 4 9------ 51.6- 43.5---
2024-05-29 12:53 pm SE 5 11------ 51.4- 42.4---
2024-05-29 12:43 pm SE 5 9------ 52.3- 42.6---
2024-05-29 12:33 pmESE 6 14------ 51.8- 42.8---
2024-05-29 12:23 pm SE 5 10------ 51.3- 42.4---
2024-05-29 12:13 pm SE 5 12------ 51.1- 42.3---
2024-05-29 12:03 pmESE 7 14------ 50.9- 42.6---
2024-05-29 11:53 am SE 9 17------ 50.5- 42.8---
2024-05-29 11:43 amESE 6 14------ 50.0- 43.0---
2024-05-29 11:33 amESE 5 11------ 50.0- 42.8---
2024-05-29 11:23 amESE 5 11------ 50.2- 43.0---
2024-05-29 11:13 amESE 5 14------ 50.9- 43.3---
2024-05-29 11:03 amESE 5 11------ 50.7- 43.9---
2024-05-29 10:53 amESE 5 8------ 50.5- 43.9---
2024-05-29 10:43 am SE 3 7------ 50.2- 44.1---
2024-05-29 10:33 am SE 3 8------ 49.8- 43.9---
2024-05-29 10:23 am SE 2 7------ 49.5- 44.2---
2024-05-29 10:13 amSSE 2 6------ 48.6- 43.7---
2024-05-29 10:03 am SE 2 7------ 48.2- 43.3---
2024-05-29 09:53 amSSE 2 7------ 48.0- 43.2---
2024-05-29 09:43 am SE 3 10------ 48.0- 42.8---
2024-05-29 09:33 am SE 4 11------ 47.8- 43.0---
2024-05-29 09:23 amSSE 2 7------ 47.7- 43.3---
2024-05-29 09:13 am S 2 7------ 47.5- 43.3---
2024-05-29 09:03 amSSE 2 9------ 47.3- 43.0---
2024-05-29 08:53 am SE 3 9------ 47.1- 42.8---
2024-05-29 08:43 am SE 2 7------ 47.3- 43.5---
2024-05-29 08:33 am- 0 3------ 47.3- 43.7---
2024-05-29 08:23 am SE 2 4------ 46.8- 43.2---
2024-05-29 08:13 am SE 3 6------ 46.4- 42.6---
2024-05-29 08:03 am SE 4 8------ 46.2- 42.1---
2024-05-29 07:53 am SE 4 10------ 45.9- 42.3---
2024-05-29 07:43 am SE 4 13------ 46.0- 42.6---
2024-05-29 07:33 am SE 6 13------ 46.0- 42.4---
2024-05-29 07:23 am SE 5 12------ 45.7- 42.6---
2024-05-29 07:13 am SE 3 9------ 45.7- 42.6---
2024-05-29 07:03 am SE 3 9------ 45.9- 42.8---
2024-05-29 06:53 am SE 5 12------ 45.9- 42.3---
2024-05-29 06:43 am SE 6 16------ 46.0- 42.6---
2024-05-29 06:33 am SE 7 15------ 46.0- 42.4---
2024-05-29 06:23 am SE 7 18------ 46.0- 42.4---
2024-05-29 06:13 amSSE 3 8------ 46.6- 42.8---
2024-05-29 06:03 amSSE 3 8------ 47.1- 43.2---
2024-05-29 05:53 am SE 2 9------ 47.3- 43.5---
2024-05-29 05:43 am SE 6 12------ 47.5- 43.7---
2024-05-29 05:33 am SE 5 16------ 47.7- 43.3---
2024-05-29 05:23 am SE 3 7------ 47.8- 43.3---
2024-05-29 05:13 am SE 3 8------ 47.8- 43.2---
2024-05-29 05:03 am SE 4 9------ 47.8- 43.3---
2024-05-29 04:53 am SE 4 9------ 47.8- 43.0---
2024-05-29 04:43 am SE 3 7------ 47.7- 43.0---
2024-05-29 04:33 am SE 3 7------ 47.7- 43.0---
2024-05-29 04:23 am SE 3 6------ 47.7- 43.0---
2024-05-29 04:13 am SE 3 5------ 47.7- 43.0---
2024-05-29 04:03 am SE 3 5------ 47.8- 43.0---
2024-05-29 03:53 am SE 3 6------ 47.8- 43.0---
2024-05-29 03:43 am SE 3 5------ 47.8- 43.0---
2024-05-29 03:33 am SE 2 6------ 47.8- 42.6---
2024-05-29 03:23 amSSE 1 4------ 47.8- 42.6---
2024-05-29 03:13 am SE 2 7------ 48.0- 42.8---
2024-05-29 03:03 amESE 4 9------ 48.2- 42.8---
2024-05-29 02:53 am SE 3 8------ 48.2- 42.6---
2024-05-29 02:43 am SE 2 5------ 47.8- 42.3---
2024-05-29 02:33 amESE 1 4------ 48.0- 42.4---
2024-05-29 02:23 amSSE 1 4------ 48.2- 42.6---
2024-05-29 02:13 am SE 2 6------ 48.4- 42.8---
2024-05-29 02:03 am SE 3 9------ 48.4- 42.8---
2024-05-29 01:53 am SE 2 7------ 48.4- 42.6---
2024-05-29 01:43 amSSE 1 4------ 48.6- 42.8---
2024-05-29 01:33 am SE 3 8------ 48.7- 42.8---
2024-05-29 01:23 am SE 4 6------ 48.7- 42.8---
2024-05-29 01:13 am SE 4 7------ 48.9- 42.6---
2024-05-29 01:03 am SE 3 7------ 48.9- 42.6---
2024-05-29 12:53 am SE 4 8------ 48.9- 42.6---
2024-05-29 12:43 am SE 3 8------ 48.7- 42.6---
2024-05-29 12:33 am SE 4 6------ 48.9- 43.0---
2024-05-29 12:23 am SE 5 11------ 48.9- 42.6---
2024-05-29 12:13 am SE 3 10------ 48.7- 42.8---
2024-05-29 12:03 amSSE 3 8------ 48.7- 42.8---
2024-05-28 11:53 pm SE 3 8------ 48.9- 42.8---
2024-05-28 11:43 pm SE 4 8------ 48.9- 42.6---
2024-05-28 11:33 pm SE 3 7------ 48.9- 42.6---
2024-05-28 11:23 pmSSE 2 5------ 48.9- 42.3---
2024-05-28 11:13 pmSSE 2 6------ 49.1- 42.3---
2024-05-28 11:03 pmSSE 2 5------ 49.3- 42.4---
2024-05-28 10:53 pm S 1 6------ 49.6- 42.6---
2024-05-28 10:43 pm- 0 4------ 49.8- 42.6---
2024-05-28 10:33 pm SE 3 8------ 50.0- 42.6---
2024-05-28 10:23 pm SE 2 5------ 50.0- 43.0---
2024-05-28 10:13 pm SE 3 8------ 50.2- 43.2---
2024-05-28 10:03 pm SE 3 7------ 50.0- 43.3---
2024-05-28 09:53 pm S 1 5------ 50.0- 43.5---
2024-05-28 09:43 pmSSE 1 4------ 50.2- 43.7---
2024-05-28 09:33 pmSSE 1 5------ 50.2- 43.7---
2024-05-28 09:23 pm SE 2 8------ 50.5- 43.7---
2024-05-28 09:13 pm SE 3 9------ 51.1- 43.2---
2024-05-28 09:03 pm SE 3 7------ 51.1- 42.8---
2024-05-28 08:53 pm SE 2 6------ 50.9- 42.8---
2024-05-28 08:43 pm SE 3 6------ 50.9- 42.4---
2024-05-28 08:33 pmSSE 2 9------ 51.1- 41.9---
2024-05-28 08:23 pm SE 2 6------ 51.1- 42.1---
2024-05-28 08:13 pm SE 4 10------ 51.3- 42.3---
2024-05-28 08:03 pm SE 3 10------ 51.8- 41.9---
2024-05-28 07:53 pm SE 3 7------ 52.2- 41.7---
2024-05-28 07:43 pm SE 3 8------ 52.3- 42.6---
2024-05-28 07:33 pm SE 4 8------ 52.3- 43.9---
2024-05-28 07:23 pm SE 2 6------ 52.7- 43.2---
2024-05-28 07:13 pm SE 5 11------ 52.7- 42.6---
2024-05-28 07:03 pm SE 3 8------ 53.4- 42.4---
2024-05-28 06:53 pmESE 2 6------ 53.8- 41.9---